Time;durP1;ratioP1;P1;durP2;ratioP2;P2;SDS_P1;SDS_P2;PMS_P1;PMS_P2;Temp;Humidity;BMP_temperature;BMP_pressure;BME280_temperature;BME280_humidity;BME280_pressure;Samples;Min_cycle;Max_cycle;Signal;HPM_P1;HPM_P2
2023/01/31 00:01:11;;;;;;;4.97;0.70;;;19.70;40.70;;;;;;5065308;28;20119;-52
2023/01/31 00:03:39;;;;;;;3.28;1.40;;;19.70;40.70;;;;;;5066794;28;20166;-52
2023/01/31 00:06:17;;;;;;;6.40;2.35;;;19.60;40.70;;;;;;5066765;28;20055;-52
2023/01/31 00:08:45;;;;;;;3.85;0.93;;;19.60;40.60;;;;;;5067135;28;20045;-53
2023/01/31 00:11:12;;;;;;;2.08;1.00;;;19.50;40.60;;;;;;5066833;28;20047;-51
2023/01/31 00:13:40;;;;;;;6.65;2.25;;;19.50;40.60;;;;;;5066778;28;20063;-54
2023/01/31 00:16:08;;;;;;;8.80;1.38;;;19.50;40.60;;;;;;5066848;28;20040;-54
2023/01/31 00:18:37;;;;;;;6.00;1.58;;;19.40;40.60;;;;;;5066471;28;20535;-52
2023/01/31 00:21:09;;;;;;;2.60;0.63;;;19.40;40.70;;;;;;5064999;28;20141;-53
2023/01/31 00:23:39;;;;;;;7.28;1.27;;;19.40;40.70;;;;;;5065438;28;20106;-53
2023/01/31 00:26:09;;;;;;;5.38;1.60;;;19.40;40.90;;;;;;5065910;28;20123;-54
2023/01/31 00:28:36;;;;;;;3.00;0.90;;;19.30;40.80;;;;;;5063364;28;20056;-52
2023/01/31 00:31:04;;;;;;;2.33;0.60;;;19.30;40.90;;;;;;5044968;28;20200;-48
2023/01/31 00:33:31;;;;;;;3.72;1.10;;;19.30;41.00;;;;;;5045260;28;20047;-53
2023/01/31 00:35:58;;;;;;;3.35;1.80;;;19.20;41.00;;;;;;5047744;28;20049;-49
2023/01/31 00:38:26;;;;;;;8.18;1.20;;;19.20;41.10;;;;;;5046719;28;20535;-53
2023/01/31 00:40:55;;;;;;;2.47;0.85;;;19.20;41.20;;;;;;5061716;28;20049;-51
2023/01/31 00:43:22;;;;;;;8.25;1.10;;;19.10;41.30;;;;;;5060895;28;20127;-50
2023/01/31 00:45:50;;;;;;;4.75;1.25;;;19.10;41.40;;;;;;5045641;28;20474;-51
2023/01/31 00:48:17;;;;;;;5.35;1.58;;;19.10;41.50;;;;;;5044882;28;20488;-54
2023/01/31 00:50:44;;;;;;;3.78;1.35;;;19.00;41.60;;;;;;5046192;28;20053;-54
2023/01/31 00:53:11;;;;;;;7.28;1.02;;;19.00;41.60;;;;;;5065696;28;20048;-54
2023/01/31 00:55:38;;;;;;;5.00;1.02;;;19.00;41.70;;;;;;5065814;28;20080;-52
2023/01/31 00:58:07;;;;;;;8.27;2.15;;;19.00;41.80;;;;;;5065652;28;20049;-54
2023/01/31 01:00:34;;;;;;;2.75;1.20;;;19.00;41.80;;;;;;5063907;28;20044;-54
2023/01/31 01:03:02;;;;;;;6.70;0.90;;;18.90;41.90;;;;;;5068333;28;20082;-53
2023/01/31 01:05:29;;;;;;;4.18;1.13;;;18.90;41.90;;;;;;5045621;28;20565;-55
2023/01/31 01:07:58;;;;;;;9.18;1.48;;;18.90;42.60;;;;;;5045472;28;20047;-52
2023/01/31 01:10:25;;;;;;;4.68;1.00;;;18.80;42.10;;;;;;5045702;28;20052;-55
2023/01/31 01:12:52;;;;;;;4.32;0.75;;;18.80;42.10;;;;;;5045290;28;20528;-54
2023/01/31 01:15:21;;;;;;;5.35;1.38;;;18.80;42.20;;;;;;5045160;28;20533;-55
2023/01/31 01:17:49;;;;;;;3.00;1.38;;;18.80;42.20;;;;;;5044012;28;20249;-54
2023/01/31 01:20:19;;;;;;;4.82;0.82;;;18.70;42.30;;;;;;5027270;28;20095;-55
2023/01/31 01:22:47;;;;;;;4.50;1.13;;;18.70;42.30;;;;;;5061545;28;20054;-51
2023/01/31 01:25:14;;;;;;;5.32;0.80;;;18.70;42.40;;;;;;5063910;28;20076;-53
2023/01/31 01:27:41;;;;;;;3.17;0.93;;;18.70;42.50;;;;;;5063262;28;20052;-53
2023/01/31 01:30:10;;;;;;;7.15;1.17;;;18.70;42.50;;;;;;5050220;28;20131;-54
2023/01/31 01:32:39;;;;;;;2.92;0.65;;;18.70;42.60;;;;;;5045409;28;20148;-51
2023/01/31 01:35:08;;;;;;;4.05;0.73;;;18.60;42.60;;;;;;5045109;28;20114;-51
2023/01/31 01:37:35;;;;;;;6.43;0.73;;;18.60;42.70;;;;;;5044881;28;20045;-53
2023/01/31 01:40:03;;;;;;;3.13;0.60;;;18.60;42.70;;;;;;5053841;28;20485;-54
2023/01/31 01:42:35;;;;;;;3.17;1.58;;;18.60;42.70;;;;;;5064797;28;20151;-53
2023/01/31 01:45:05;;;;;;;2.03;0.50;;;18.60;42.70;;;;;;5064807;28;20044;-51
2023/01/31 01:47:40;;;;;;;4.07;0.75;;;18.60;42.80;;;;;;5063394;28;20040;-53
2023/01/31 01:50:12;;;;;;;3.63;0.97;;;18.50;42.80;;;;;;5053429;28;20040;-52
2023/01/31 01:52:45;;;;;;;1.38;0.60;;;18.50;42.80;;;;;;5064838;28;20048;-53
2023/01/31 01:55:21;;;;;;;2.92;0.40;;;18.50;42.90;;;;;;5063700;28;20045;-54
2023/01/31 01:57:52;;;;;;;5.18;1.85;;;18.50;42.90;;;;;;5064959;28;20053;-54
2023/01/31 02:00:23;;;;;;;2.42;0.88;;;18.50;42.90;;;;;;5063911;28;20389;-54
2023/01/31 02:02:58;;;;;;;1.60;0.60;;;18.50;43.00;;;;;;5065246;28;20037;-54
2023/01/31 02:05:29;;;;;;;3.42;0.82;;;18.40;43.00;;;;;;5065141;28;20131;-54
2023/01/31 02:07:57;;;;;;;6.00;1.58;;;18.40;42.90;;;;;;5063429;28;20508;-54
2023/01/31 02:10:30;;;;;;;4.15;1.25;;;18.40;43.00;;;;;;5063458;28;20847;-52
2023/01/31 02:12:57;;;;;;;5.78;0.85;;;18.40;43.10;;;;;;5064476;28;20072;-54
2023/01/31 02:15:25;;;;;;;3.50;0.50;;;18.30;43.00;;;;;;5064734;28;20552;-50
2023/01/31 02:17:54;;;;;;;3.35;0.40;;;18.40;43.20;;;;;;5063229;28;20040;-55
2023/01/31 02:20:56;;;;;;;3.75;0.63;;;18.30;43.20;;;;;;5063142;28;20076;-52
2023/01/31 02:23:45;;;;;;;8.02;1.08;;;18.40;43.20;;;;;;5045247;28;20068;-53
2023/01/31 02:26:41;;;;;;;5.65;0.50;;;18.30;43.90;;;;;;5063668;28;20852;-54
2023/01/31 02:29:31;;;;;;;6.40;1.75;;;18.30;43.20;;;;;;5047348;28;20068;-50
2023/01/31 02:32:38;;;;;;;3.75;0.93;;;18.30;43.20;;;;;;5030951;28;20052;-52
2023/01/31 02:35:13;;;;;;;3.40;0.52;;;18.30;43.20;;;;;;5047442;28;20123;-50
2023/01/31 02:37:49;;;;;;;2.67;1.08;;;18.20;43.30;;;;;;5066089;28;20515;-53
2023/01/31 02:40:24;;;;;;;8.23;0.73;;;18.20;43.30;;;;;;5066828;28;20582;-55
2023/01/31 02:43:04;;;;;;;2.47;0.40;;;18.20;43.50;;;;;;5068771;28;20115;-55
2023/01/31 02:45:38;;;;;;;3.97;0.75;;;18.20;43.40;;;;;;5052742;28;20472;-51
2023/01/31 02:48:17;;;;;;;5.65;0.52;;;18.20;43.40;;;;;;5046923;28;20521;-52
2023/01/31 02:51:00;;;;;;;6.22;1.13;;;18.20;43.50;;;;;;5047898;28;20140;-53
2023/01/31 02:53:33;;;;;;;3.88;0.57;;;18.20;43.50;;;;;;5067363;28;20055;-53
2023/01/31 02:56:17;;;;;;;6.82;0.75;;;18.10;43.40;;;;;;5068187;28;20469;-49
2023/01/31 02:58:54;;;;;;;3.35;0.30;;;18.10;43.40;;;;;;5084179;28;20052;-51
2023/01/31 03:01:27;;;;;;;2.30;0.60;;;18.10;43.40;;;;;;5083816;28;20082;-51
2023/01/31 03:03:58;;;;;;;1.88;0.70;;;18.10;43.40;;;;;;5084153;28;20049;-49
2023/01/31 03:07:00;;;;;;;2.83;0.60;;;18.10;43.40;;;;;;5068235;28;20048;-51
2023/01/31 03:09:36;;;;;;;3.17;0.82;;;18.10;43.30;;;;;;5049924;28;20180;-54
2023/01/31 03:12:30;;;;;;;3.43;0.47;;;18.10;43.40;;;;;;5084065;28;20106;-54
2023/01/31 03:15:22;;;;;;;2.95;0.50;;;18.10;43.40;;;;;;5066785;28;20299;-54
2023/01/31 03:17:59;;;;;;;1.77;0.32;;;18.10;43.50;;;;;;5049901;28;20135;-53
2023/01/31 03:20:35;;;;;;;4.63;0.40;;;18.10;43.50;;;;;;5065455;28;20617;-52
2023/01/31 03:23:09;;;;;;;3.28;0.30;;;18.10;43.50;;;;;;5066781;28;20072;-52
2023/01/31 03:25:39;;;;;;;4.25;1.33;;;18.10;43.40;;;;;;5065027;28;20091;-58
2023/01/31 03:28:14;;;;;;;3.70;0.40;;;18.10;43.40;;;;;;5065234;28;20067;-54
2023/01/31 03:30:46;;;;;;;5.75;1.65;;;18.10;43.40;;;;;;5029090;28;20053;-54
2023/01/31 03:33:21;;;;;;;3.67;0.32;;;18.00;43.40;;;;;;5046903;28;20683;-51
2023/01/31 03:35:55;;;;;;;3.80;0.32;;;18.10;43.40;;;;;;5047571;28;20048;-51
2023/01/31 03:38:27;;;;;;;2.88;0.90;;;18.00;43.40;;;;;;5047353;28;20049;-50
2023/01/31 03:41:00;;;;;;;3.00;0.80;;;18.00;43.30;;;;;;5045958;28;20091;-53
2023/01/31 03:43:36;;;;;;;5.32;0.30;;;18.00;43.30;;;;;;5046087;28;20095;-53
2023/01/31 03:46:10;;;;;;;2.85;0.30;;;18.00;43.30;;;;;;5062541;28;20045;-49
2023/01/31 03:48:43;;;;;;;5.13;0.68;;;18.00;43.30;;;;;;5082268;28;20868;-50
2023/01/31 03:51:18;;;;;;;2.45;1.30;;;18.00;43.30;;;;;;5065467;28;20063;-51
2023/01/31 03:53:50;;;;;;;4.90;0.30;;;18.00;43.30;;;;;;5081991;28;20053;-50
2023/01/31 03:56:21;;;;;;;2.15;0.50;;;18.00;43.40;;;;;;5066666;28;20059;-53
2023/01/31 03:58:52;;;;;;;2.67;0.45;;;18.00;43.40;;;;;;5065774;28;20040;-51
2023/01/31 04:01:23;;;;;;;5.90;0.90;;;18.00;43.40;;;;;;5065350;28;20949;-52
2023/01/31 04:03:54;;;;;;;2.15;0.70;;;17.90;43.40;;;;;;5049040;28;20053;-55
2023/01/31 04:06:23;;;;;;;3.10;0.40;;;17.90;43.60;;;;;;5066533;28;20060;-54
2023/01/31 04:08:51;;;;;;;9.18;0.55;;;17.90;43.50;;;;;;5064910;28;20442;-51
2023/01/31 04:11:21;;;;;;;3.70;0.52;;;17.90;43.60;;;;;;5065361;28;20056;-52
2023/01/31 04:13:48;;;;;;;2.53;0.47;;;17.90;43.70;;;;;;5066352;28;20476;-52
2023/01/31 04:16:16;;;;;;;7.00;1.85;;;17.90;43.70;;;;;;5066539;28;20037;-53
2023/01/31 04:18:43;;;;;;;3.53;0.30;;;17.90;43.80;;;;;;5066408;28;20052;-54
2023/01/31 04:21:10;;;;;;;5.72;1.13;;;17.90;43.80;;;;;;5066474;28;20055;-55
2023/01/31 04:23:40;;;;;;;3.42;0.20;;;17.90;43.80;;;;;;5064485;28;20402;-53
2023/01/31 04:26:07;;;;;;;1.27;0.30;;;17.90;43.90;;;;;;5066467;28;20883;-56
2023/01/31 04:28:34;;;;;;;2.55;0.73;;;17.90;43.90;;;;;;5064413;28;20049;-51
2023/01/31 04:31:01;;;;;;;1.58;0.30;;;17.90;43.90;;;;;;5046566;28;20132;-54
2023/01/31 04:33:28;;;;;;;4.88;1.75;;;17.90;43.90;;;;;;5046561;28;20114;-55
2023/01/31 04:35:55;;;;;;;4.97;0.50;;;17.90;44.00;;;;;;5046278;28;20541;-54
2023/01/31 04:38:23;;;;;;;2.67;0.20;;;17.90;44.00;;;;;;5048284;28;20465;-53
2023/01/31 04:40:51;;;;;;;2.88;0.52;;;17.90;44.00;;;;;;5058847;28;20048;-55
2023/01/31 04:43:18;;;;;;;3.60;1.27;;;17.90;44.00;;;;;;5065980;28;20063;-53
2023/01/31 04:45:46;;;;;;;3.70;0.52;;;17.90;43.90;;;;;;5065539;28;20040;-50
2023/01/31 04:48:13;;;;;;;4.40;0.20;;;17.90;43.90;;;;;;5065582;28;20045;-52
2023/01/31 04:50:40;;;;;;;1.92;0.30;;;17.90;43.90;;;;;;5066016;28;20055;-55
2023/01/31 04:53:08;;;;;;;1.17;0.40;;;17.90;44.00;;;;;;5065728;28;20048;-54
2023/01/31 04:55:35;;;;;;;1.95;0.40;;;17.90;44.00;;;;;;5065838;28;20447;-53
2023/01/31 04:58:04;;;;;;;6.15;0.40;;;17.90;44.00;;;;;;5065759;28;20045;-53
2023/01/31 05:00:31;;;;;;;5.40;1.35;;;17.90;44.00;;;;;;5065560;28;20041;-51
2023/01/31 05:02:59;;;;;;;2.78;0.35;;;17.90;44.00;;;;;;5065681;28;20048;-50
2023/01/31 05:05:27;;;;;;;3.13;0.65;;;17.90;44.00;;;;;;5065000;28;20040;-48
2023/01/31 05:07:54;;;;;;;3.08;0.73;;;17.90;43.90;;;;;;5065546;28;20048;-52
2023/01/31 05:10:22;;;;;;;2.83;0.20;;;17.90;43.90;;;;;;5065592;28;20048;-51
2023/01/31 05:12:49;;;;;;;3.95;0.25;;;17.90;43.90;;;;;;5065583;28;20492;-53
2023/01/31 05:15:17;;;;;;;6.05;0.40;;;17.90;43.90;;;;;;5065543;28;20042;-49
2023/01/31 05:17:47;;;;;;;1.92;0.77;;;17.80;43.80;;;;;;5065498;28;20131;-53
2023/01/31 05:20:14;;;;;;;4.78;0.20;;;17.90;43.90;;;;;;5064996;28;20049;-51
2023/01/31 05:22:41;;;;;;;7.00;0.98;;;17.80;43.80;;;;;;5065605;28;20052;-53
2023/01/31 05:25:09;;;;;;;2.45;0.15;;;17.80;43.80;;;;;;5065280;28;20100;-52
2023/01/31 05:27:36;;;;;;;2.55;0.38;;;17.90;43.80;;;;;;5065138;28;20054;-51
2023/01/31 05:30:04;;;;;;;3.10;0.82;;;17.90;43.90;;;;;;5065365;28;20113;-55
2023/01/31 05:32:32;;;;;;;3.28;0.68;;;17.80;43.70;;;;;;5065394;28;20040;-52
2023/01/31 05:35:00;;;;;;;2.35;0.28;;;17.90;43.80;;;;;;5065440;28;20129;-49
2023/01/31 05:37:28;;;;;;;1.38;0.38;;;17.90;43.80;;;;;;5065559;28;20054;-52
2023/01/31 05:39:57;;;;;;;0.65;0.25;;;17.90;43.90;;;;;;5065399;28;20059;-54
2023/01/31 05:42:24;;;;;;;7.88;0.60;;;17.90;43.90;;;;;;5064950;28;20067;-54
2023/01/31 05:44:51;;;;;;;3.72;0.38;;;17.80;43.80;;;;;;5054517;28;20048;-51
2023/01/31 05:47:18;;;;;;;2.38;0.13;;;17.80;43.90;;;;;;5049992;28;20059;-49
2023/01/31 05:49:47;;;;;;;2.28;1.00;;;17.90;43.90;;;;;;5064496;28;20047;-48
2023/01/31 05:52:14;;;;;;;2.50;0.82;;;17.90;43.90;;;;;;5056855;28;20065;-54
2023/01/31 05:54:41;;;;;;;14.10;0.30;;;17.90;44.00;;;;;;5062317;28;20627;-52
2023/01/31 05:57:08;;;;;;;3.50;0.15;;;17.80;43.90;;;;;;5064649;28;20135;-51
2023/01/31 05:59:35;;;;;;;0.85;0.63;;;17.80;43.90;;;;;;5063997;28;20523;-53
2023/01/31 06:02:02;;;;;;;2.30;0.50;;;17.90;43.90;;;;;;5063276;28;20085;-48
2023/01/31 06:04:30;;;;;;;2.22;0.15;;;17.90;43.90;;;;;;5064287;28;20509;-54
2023/01/31 06:06:58;;;;;;;1.08;0.20;;;17.90;43.90;;;;;;5064282;28;20037;-54
2023/01/31 06:09:26;;;;;;;1.20;0.10;;;17.90;43.90;;;;;;5064389;28;20145;-49
2023/01/31 06:11:53;;;;;;;4.07;1.75;;;17.90;43.90;;;;;;5064578;28;20040;-53
2023/01/31 06:14:20;;;;;;;3.03;0.20;;;17.90;43.90;;;;;;5064310;28;20575;-55
2023/01/31 06:16:48;;;;;;;3.22;0.75;;;17.90;43.90;;;;;;5064482;28;20049;-54
2023/01/31 06:19:15;;;;;;;2.63;0.30;;;17.90;43.60;;;;;;5064075;28;20036;-50
2023/01/31 06:21:44;;;;;;;4.60;0.47;;;17.90;43.60;;;;;;5064078;28;20055;-53
2023/01/31 06:24:12;;;;;;;2.60;0.40;;;17.90;43.70;;;;;;5064392;28;20043;-55
2023/01/31 06:26:39;;;;;;;0.88;0.15;;;17.90;43.80;;;;;;5064846;28;20312;-55
2023/01/31 06:29:08;;;;;;;3.30;0.20;;;17.90;43.80;;;;;;5058085;28;20127;-55
2023/01/31 06:31:35;;;;;;;4.10;0.10;;;17.90;43.80;;;;;;5044800;28;20905;-53
2023/01/31 06:34:03;;;;;;;5.20;1.00;;;17.90;43.80;;;;;;5044337;28;20131;-51
2023/01/31 06:36:32;;;;;;;7.78;0.55;;;17.90;43.80;;;;;;5047451;28;20818;-51
2023/01/31 06:39:00;;;;;;;4.78;0.15;;;17.90;43.90;;;;;;5044689;28;20040;-53
2023/01/31 06:41:29;;;;;;;2.42;0.20;;;17.90;43.80;;;;;;5048455;28;20036;-53
2023/01/31 06:43:57;;;;;;;9.48;0.47;;;18.00;43.90;;;;;;5044670;28;20139;-54
2023/01/31 06:46:24;;;;;;;1.40;0.10;;;18.00;43.90;;;;;;5054450;28;20045;-55
2023/01/31 06:48:51;;;;;;;5.03;0.30;;;18.00;43.40;;;;;;5058841;28;20098;-56
2023/01/31 06:51:18;;;;;;;3.78;0.63;;;18.00;43.00;;;;;;5049544;28;20045;-56
2023/01/31 06:53:46;;;;;;;5.78;0.20;;;18.00;42.80;;;;;;5064473;28;20041;-55
2023/01/31 06:56:13;;;;;;;7.40;0.93;;;18.00;42.70;;;;;;5064375;28;20144;-52
2023/01/31 06:58:42;;;;;;;8.77;0.75;;;18.00;42.90;;;;;;5064249;28;20102;-54
2023/01/31 07:01:11;;;;;;;2.85;0.43;;;18.00;43.20;;;;;;5064397;28;20045;-49
2023/01/31 07:03:39;;;;;;;9.00;0.40;;;18.10;43.50;;;;;;5057580;28;20071;-47
2023/01/31 07:06:06;;;;;;;6.68;1.50;;;18.30;43.80;;;;;;5064467;28;20051;-49
2023/01/31 07:08:35;;;;;;;1.77;0.50;;;18.40;43.90;;;;;;5064398;28;20129;-49
2023/01/31 07:11:03;;;;;;;6.93;0.20;;;18.60;43.90;;;;;;5067738;28;20040;-46
2023/01/31 07:13:30;;;;;;;4.95;0.38;;;18.70;43.90;;;;;;5068332;28;20041;-48
2023/01/31 07:15:58;;;;;;;7.55;0.20;;;18.90;43.80;;;;;;5068075;28;20033;-44
2023/01/31 07:18:25;;;;;;;2.70;0.30;;;19.10;43.70;;;;;;5066636;28;20058;-48
2023/01/31 07:20:52;;;;;;;1.42;0.10;;;19.20;43.50;;;;;;5051897;28;20051;-46
2023/01/31 07:23:19;;;;;;;1.85;0.15;;;19.40;43.40;;;;;;5067846;28;20044;-46
2023/01/31 07:25:46;;;;;;;1.80;0.20;;;19.50;43.20;;;;;;5068250;28;20064;-46
2023/01/31 07:28:13;;;;;;;5.63;0.30;;;19.70;42.80;;;;;;5067864;28;20052;-46
2023/01/31 07:30:42;;;;;;;6.90;0.50;;;19.80;42.70;;;;;;5052607;28;20897;-45
2023/01/31 07:33:11;;;;;;;2.17;0.45;;;20.00;42.60;;;;;;5067953;28;20049;-53
2023/01/31 07:35:39;;;;;;;2.30;0.20;;;20.10;42.40;;;;;;5068118;28;20047;-50
2023/01/31 07:38:06;;;;;;;3.88;0.15;;;20.20;42.20;;;;;;5066408;28;20520;-47
2023/01/31 07:40:33;;;;;;;3.83;0.30;;;20.30;42.00;;;;;;5067659;28;20459;-51
2023/01/31 07:43:00;;;;;;;2.25;0.20;;;20.50;41.90;;;;;;5067699;28;20554;-45
2023/01/31 07:45:29;;;;;;;1.45;0.50;;;20.60;41.70;;;;;;5052110;28;20033;-42
2023/01/31 07:47:58;;;;;;;2.03;0.20;;;20.70;41.60;;;;;;5065821;28;20055;-47
2023/01/31 07:50:27;;;;;;;2.75;0.35;;;20.80;41.30;;;;;;5067422;28;20044;-45
2023/01/31 07:52:56;;;;;;;4.38;0.30;;;20.90;41.00;;;;;;5067218;28;20483;-51
2023/01/31 07:55:24;;;;;;;2.08;0.20;;;21.00;40.80;;;;;;5065778;28;20055;-46
2023/01/31 07:57:51;;;;;;;2.10;0.77;;;21.10;40.70;;;;;;5067089;28;20818;-41
2023/01/31 08:05:50;;;;;;;4.60;0.40;;;21.40;40.40;;;;;;5067128;28;20059;-46
2023/01/31 08:08:17;;;;;;;5.20;0.40;;;21.50;40.00;;;;;;5067166;28;20167;-51
2023/01/31 08:10:47;;;;;;;2.80;1.30;;;21.50;39.80;;;;;;5067227;28;20072;-52
2023/01/31 08:13:14;;;;;;;5.97;0.90;;;21.60;39.70;;;;;;5067081;28;20041;-48
2023/01/31 08:15:41;;;;;;;3.13;0.38;;;21.60;39.70;;;;;;5066590;28;20045;-47
2023/01/31 08:18:08;;;;;;;1.20;0.20;;;21.60;39.40;;;;;;5067047;28;20048;-54
2023/01/31 08:20:36;;;;;;;1.92;0.20;;;21.70;39.10;;;;;;5066437;28;20132;-51
2023/01/31 08:23:05;;;;;;;0.52;0.30;;;21.80;38.80;;;;;;5066469;28;20041;-46
2023/01/31 08:25:32;;;;;;;2.05;0.20;;;21.90;38.60;;;;;;5066964;28;20045;-48
2023/01/31 08:28:00;;;;;;;3.75;0.30;;;21.90;38.50;;;;;;5066815;28;20044;-48
2023/01/31 08:30:28;;;;;;;3.67;0.40;;;22.00;38.40;;;;;;5065897;28;20402;-47
2023/01/31 08:32:55;;;;;;;2.92;0.25;;;22.00;38.20;;;;;;5066786;28;20048;-47
2023/01/31 08:35:23;;;;;;;3.05;0.22;;;22.00;38.20;;;;;;5066905;28;20075;-47
2023/01/31 08:37:51;;;;;;;4.22;0.20;;;22.00;38.10;;;;;;5065033;28;20056;-48
2023/01/31 08:40:19;;;;;;;4.15;0.35;;;22.10;38.10;;;;;;5046240;28;20057;-54
2023/01/31 08:42:54;;;;;;;4.53;0.35;;;22.10;38.20;;;;;;5059885;28;20074;-51
2023/01/31 08:45:22;;;;;;;4.03;0.38;;;22.10;38.00;;;;;;5067328;28;20954;-52
2023/01/31 08:47:53;;;;;;;3.20;0.45;;;22.10;38.30;;;;;;5063380;28;20040;-48
2023/01/31 08:50:21;;;;;;;1.13;0.10;;;22.20;37.90;;;;;;5046452;28;20517;-47
2023/01/31 08:52:52;;;;;;;2.25;0.22;;;22.20;37.90;;;;;;5054826;28;20113;-46
2023/01/31 08:55:22;;;;;;;2.10;0.10;;;22.20;37.90;;;;;;5047527;28;20712;-48
2023/01/31 08:57:49;;;;;;;2.05;0.60;;;22.20;37.90;;;;;;5043952;28;20075;-48
2023/01/31 09:00:18;;;;;;;2.95;0.57;;;22.30;37.90;;;;;;5044730;28;20164;-50
2023/01/31 09:02:50;;;;;;;6.25;0.30;;;22.30;37.80;;;;;;5044474;28;20441;-51
2023/01/31 09:05:17;;;;;;;1.02;0.20;;;22.40;37.90;;;;;;5044365;28;20230;-54
2023/01/31 09:07:44;;;;;;;6.82;0.68;;;22.50;37.70;;;;;;5044626;28;20128;-49
2023/01/31 09:10:12;;;;;;;2.45;0.68;;;22.60;37.70;;;;;;5046534;28;20063;-49
2023/01/31 09:12:40;;;;;;;3.67;0.20;;;22.70;37.60;;;;;;5064536;28;20044;-47
2023/01/31 09:15:08;;;;;;;0.80;0.20;;;22.80;37.50;;;;;;5065815;28;20435;-47
2023/01/31 09:17:36;;;;;;;0.80;0.10;;;22.80;37.40;;;;;;5065665;28;20089;-52
2023/01/31 09:20:05;;;;;;;9.80;0.75;;;22.90;37.30;;;;;;5065655;28;20079;-49
2023/01/31 09:22:33;;;;;;;0.95;0.20;;;23.00;37.50;;;;;;5063981;28;20052;-48
2023/01/31 09:25:00;;;;;;;2.20;0.68;;;23.10;37.40;;;;;;5064069;28;20048;-49
2023/01/31 09:27:28;;;;;;;3.22;0.20;;;23.10;37.40;;;;;;5065136;28;20064;-46
2023/01/31 09:29:56;;;;;;;2.55;0.20;;;23.20;37.40;;;;;;5052317;28;20491;-54
2023/01/31 09:32:25;;;;;;;4.32;0.20;;;23.30;37.20;;;;;;5045261;28;20084;-56
2023/01/31 09:34:52;;;;;;;4.32;0.20;;;23.40;37.30;;;;;;5045639;28;20056;-52
2023/01/31 09:37:20;;;;;;;5.90;0.30;;;23.40;37.10;;;;;;5045451;28;20045;-53
2023/01/31 09:39:47;;;;;;;4.05;0.28;;;23.50;36.90;;;;;;5063605;28;20048;-49
2023/01/31 09:42:21;;;;;;;6.47;0.45;;;23.60;36.60;;;;;;5057155;28;20145;-53
2023/01/31 09:45:03;;;;;;;2.60;0.80;;;23.70;36.50;;;;;;5043940;28;20045;-51
2023/01/31 09:47:36;;;;;;;3.50;1.13;;;23.80;36.30;;;;;;5058486;28;20469;-55
2023/01/31 09:50:07;;;;;;;1.63;0.30;;;23.80;36.20;;;;;;5065538;28;20465;-55
2023/01/31 09:52:35;;;;;;;1.95;0.13;;;23.90;36.10;;;;;;5065343;28;20046;-51
2023/01/31 09:55:02;;;;;;;3.08;0.28;;;23.90;36.00;;;;;;5065225;28;20080;-52
2023/01/31 09:57:41;;;;;;;2.58;0.10;;;24.00;35.90;;;;;;5065002;28;20052;-54
2023/01/31 10:00:21;;;;;;;3.42;0.20;;;24.00;35.60;;;;;;5065275;28;20048;-53
2023/01/31 10:03:19;;;;;;;1.98;0.43;;;24.10;35.60;;;;;;5065515;28;20114;-52
2023/01/31 10:05:51;;;;;;;2.10;0.52;;;24.10;35.50;;;;;;5064751;28;20101;-52
2023/01/31 10:08:31;;;;;;;3.53;0.32;;;24.10;35.40;;;;;;5065040;28;20101;-51
2023/01/31 10:11:02;;;;;;;1.55;0.22;;;24.20;35.30;;;;;;5064953;28;20052;-51
2023/01/31 10:13:35;;;;;;;4.40;0.30;;;24.20;35.20;;;;;;5080462;28;20045;-53
2023/01/31 10:16:17;;;;;;;3.95;0.60;;;24.30;35.10;;;;;;5065279;28;20040;-51
2023/01/31 10:18:48;;;;;;;1.38;0.88;;;24.30;35.00;;;;;;5064986;28;20461;-51
2023/01/31 10:21:22;;;;;;;3.25;0.13;;;24.40;35.10;;;;;;5064898;28;20037;-52
2023/01/31 10:23:53;;;;;;;5.55;0.30;;;24.40;35.10;;;;;;5064191;28;20044;-52
2023/01/31 10:26:25;;;;;;;2.78;0.30;;;24.40;35.00;;;;;;5064055;28;20805;-48
2023/01/31 10:28:59;;;;;;;3.50;0.98;;;24.50;34.90;;;;;;5059881;28;20871;-51
2023/01/31 10:31:32;;;;;;;0.77;0.20;;;24.50;34.80;;;;;;5043973;28;20041;-52
2023/01/31 10:34:03;;;;;;;6.35;1.60;;;24.50;34.80;;;;;;5044814;28;20037;-51
2023/01/31 10:36:34;;;;;;;1.45;0.20;;;24.60;34.80;;;;;;5044669;28;20429;-52
2023/01/31 10:39:05;;;;;;;2.65;0.93;;;24.60;34.80;;;;;;5056157;28;20098;-51
2023/01/31 10:41:42;;;;;;;2.30;0.60;;;24.60;34.70;;;;;;5064275;28;20040;-54
2023/01/31 10:44:22;;;;;;;2.67;0.40;;;24.70;34.70;;;;;;5064668;28;20055;-52
2023/01/31 10:46:52;;;;;;;3.70;0.40;;;24.70;34.70;;;;;;5068292;28;20090;-49
2023/01/31 10:49:24;;;;;;;2.30;0.20;;;24.70;34.60;;;;;;5053610;28;20052;-51
2023/01/31 10:52:03;;;;;;;2.22;0.40;;;24.70;34.30;;;;;;5057167;28;20074;-51
2023/01/31 10:54:42;;;;;;;6.70;0.38;;;24.70;34.00;;;;;;5064599;28;20156;-53
2023/01/31 10:57:09;;;;;;;2.08;0.30;;;24.60;33.80;;;;;;5067945;28;20576;-49
2023/01/31 10:59:39;;;;;;;1.67;0.20;;;24.50;34.40;;;;;;5067843;28;20044;-52
2023/01/31 11:02:18;;;;;;;0.90;0.20;;;24.40;33.80;;;;;;5065402;28;20044;-48
2023/01/31 11:04:45;;;;;;;3.22;0.30;;;24.40;33.80;;;;;;5066737;28;20072;-50
2023/01/31 11:07:12;;;;;;;1.48;0.22;;;24.30;34.00;;;;;;5067652;28;20044;-52
2023/01/31 11:09:42;;;;;;;4.55;0.13;;;24.20;34.30;;;;;;5067314;28;20087;-49
2023/01/31 11:12:10;;;;;;;1.75;0.40;;;24.10;34.10;;;;;;5067461;28;20058;-49
2023/01/31 11:14:38;;;;;;;3.00;0.20;;;24.00;34.20;;;;;;5068207;28;20041;-50
2023/01/31 11:17:13;;;;;;;4.82;0.20;;;24.00;34.30;;;;;;5068368;28;20052;-50
2023/01/31 11:19:45;;;;;;;2.40;0.20;;;24.00;34.40;;;;;;5060173;28;20052;-49
2023/01/31 11:22:22;;;;;;;2.28;0.40;;;23.90;34.60;;;;;;5060540;28;20408;-52
2023/01/31 11:24:50;;;;;;;1.50;0.57;;;23.80;35.20;;;;;;5055316;28;20132;-48
2023/01/31 11:27:26;;;;;;;2.55;0.57;;;23.80;34.90;;;;;;5063574;28;20039;-54
2023/01/31 11:29:56;;;;;;;3.47;1.15;;;23.70;34.90;;;;;;5059217;28;20036;-54
2023/01/31 11:32:28;;;;;;;2.15;0.55;;;23.70;35.10;;;;;;5066414;28;20139;-52
2023/01/31 11:34:57;;;;;;;1.90;0.30;;;23.60;35.20;;;;;;5066408;28;20837;-53
2023/01/31 11:37:25;;;;;;;3.33;0.63;;;23.60;35.40;;;;;;5059113;28;20047;-51
2023/01/31 11:39:56;;;;;;;3.30;0.20;;;23.50;36.00;;;;;;5066401;28;20080;-47
2023/01/31 11:42:24;;;;;;;3.13;0.40;;;23.50;35.50;;;;;;5065767;28;20041;-52
2023/01/31 11:44:57;;;;;;;5.63;0.30;;;23.40;35.60;;;;;;5066944;28;20060;-49
2023/01/31 11:47:33;;;;;;;1.50;0.20;;;23.40;35.60;;;;;;5067529;28;20473;-49
2023/01/31 11:50:02;;;;;;;3.00;0.30;;;23.30;35.60;;;;;;5067168;28;20064;-49
2023/01/31 11:52:31;;;;;;;8.27;0.88;;;23.30;35.70;;;;;;5052964;28;20414;-54
2023/01/31 11:55:01;;;;;;;1.70;0.17;;;23.20;36.00;;;;;;5063577;28;20520;-54
2023/01/31 11:57:32;;;;;;;10.63;0.45;;;23.20;36.10;;;;;;5067140;28;20131;-51
2023/01/31 12:00:02;;;;;;;2.78;0.70;;;23.00;36.20;;;;;;5067318;28;20464;-49
2023/01/31 12:02:40;;;;;;;2.28;0.47;;;23.00;36.50;;;;;;5067910;28;20064;-54
2023/01/31 12:05:13;;;;;;;3.35;0.43;;;22.90;37.00;;;;;;5067259;28;20048;-55
2023/01/31 12:07:46;;;;;;;1.83;0.60;;;22.80;37.10;;;;;;5066636;28;20527;-52
2023/01/31 12:10:30;;;;;;;2.53;0.22;;;22.70;37.20;;;;;;5066907;28;20048;-53
2023/01/31 12:12:59;;;;;;;2.47;0.28;;;22.70;37.20;;;;;;5066973;28;20071;-55
2023/01/31 12:15:30;;;;;;;2.95;0.15;;;22.50;37.10;;;;;;5066984;28;20110;-51
2023/01/31 12:18:01;;;;;;;1.85;0.82;;;22.50;37.10;;;;;;5067004;28;20052;-55
2023/01/31 12:20:39;;;;;;;4.53;0.20;;;22.40;37.00;;;;;;5048586;28;20052;-54
2023/01/31 12:23:21;;;;;;;1.60;0.20;;;22.40;37.00;;;;;;5066878;28;20642;-55
2023/01/31 12:26:04;;;;;;;1.05;0.50;;;22.30;37.00;;;;;;5066553;28;20047;-50
2023/01/31 12:28:39;;;;;;;4.35;0.85;;;22.20;37.00;;;;;;5066818;28;20865;-54
2023/01/31 12:31:39;;;;;;;1.35;0.20;;;22.10;37.00;;;;;;5066723;28;20086;-53
2023/01/31 12:34:28;;;;;;;6.10;0.77;;;22.10;37.00;;;;;;5066382;28;20044;-42
2023/01/31 12:37:13;;;;;;;2.38;0.25;;;22.10;37.00;;;;;;5065774;28;20114;-48
2023/01/31 12:39:54;;;;;;;2.85;0.60;;;22.10;37.20;;;;;;5066176;28;20135;-46
2023/01/31 12:42:46;;;;;;;4.45;0.32;;;22.10;37.40;;;;;;5066609;28;20444;-46
2023/01/31 12:45:23;;;;;;;3.25;0.30;;;22.10;37.50;;;;;;5066491;28;20067;-50
2023/01/31 12:48:12;;;;;;;6.00;0.38;;;22.20;37.60;;;;;;5053479;28;20084;-49
2023/01/31 12:50:46;;;;;;;3.33;0.20;;;22.20;37.60;;;;;;5058339;28;20052;-47
2023/01/31 12:53:29;;;;;;;3.00;0.47;;;22.20;37.70;;;;;;5060132;28;20067;-45
2023/01/31 12:56:19;;;;;;;2.50;0.20;;;22.30;37.70;;;;;;5066168;28;20056;-49
2023/01/31 12:58:56;;;;;;;10.23;1.30;;;22.30;37.70;;;;;;5061720;28;20065;-51
2023/01/31 13:01:31;;;;;;;2.10;0.30;;;22.30;37.80;;;;;;5067927;28;20045;-53
2023/01/31 13:04:16;;;;;;;3.10;0.47;;;22.30;37.80;;;;;;5067056;28;20274;-55
2023/01/31 13:06:49;;;;;;;5.82;0.32;;;22.30;37.80;;;;;;5066031;28;20562;-53
2023/01/31 13:09:20;;;;;;;2.25;0.70;;;22.40;37.80;;;;;;5065803;28;20516;-55
2023/01/31 13:11:52;;;;;;;4.85;0.75;;;22.40;37.90;;;;;;5065780;28;20371;-53